Time;durP1;ratioP1;P1;durP2;ratioP2;P2;SDS_P1;SDS_P2;PMS_P1;PMS_P2;Temp;Humidity;BMP_temperature;BMP_pressure;BME280_temperature;BME280_humidity;BME280_pressure;Samples;Min_cycle;Max_cycle;Signal;HPM_P1;HPM_P2
2020/12/03 05:00:51;;;;;;;45.08;22.95;;;1.00;99.90;;;;;;5819714;23;20660;-70
2020/12/03 05:03:52;;;;;;;49.35;24.42;;;1.00;99.90;;;;;;4971062;28;20201;-70
2020/12/03 05:06:35;;;;;;;52.60;25.60;;;1.00;99.90;;;;;;4963373;28;20208;-70
2020/12/03 05:09:06;;;;;;;45.90;24.88;;;0.90;99.90;;;;;;4971957;28;20287;-70
2020/12/03 05:11:38;;;;;;;43.50;24.73;;;0.90;99.90;;;;;;4960532;28;20276;-70
2020/12/03 05:14:12;;;;;;;43.83;21.60;;;0.90;99.90;;;;;;4953133;28;20213;-70
2020/12/03 05:16:49;;;;;;;42.67;23.60;;;1.00;99.90;;;;;;4956710;28;20635;-69
2020/12/03 05:19:28;;;;;;;44.88;24.60;;;1.00;99.90;;;;;;4956531;28;20646;-69
2020/12/03 05:21:54;;;;;;;50.88;25.95;;;1.10;99.90;;;;;;4954490;28;20221;-69
2020/12/03 05:24:20;;;;;;;35.08;20.33;;;1.10;99.90;;;;;;4955193;28;20275;-69
2020/12/03 05:26:46;;;;;;;29.83;17.48;;;1.10;99.90;;;;;;4955969;28;20665;-69
2020/12/03 05:29:13;;;;;;;48.60;23.02;;;1.00;99.90;;;;;;4955673;28;20578;-70
2020/12/03 05:31:42;;;;;;;43.28;20.65;;;1.10;99.90;;;;;;4955323;28;20641;-69
2020/12/03 05:34:12;;;;;;;37.47;21.90;;;1.10;99.90;;;;;;4955872;28;20241;-70
2020/12/03 05:36:41;;;;;;;38.88;22.58;;;1.10;99.90;;;;;;4956240;28;20209;-70
2020/12/03 05:39:13;;;;;;;38.95;22.95;;;1.10;99.90;;;;;;4955041;28;20248;-70
2020/12/03 05:41:44;;;;;;;41.60;24.08;;;1.10;99.90;;;;;;4955345;28;20313;-69
2020/12/03 05:44:34;;;;;;;46.17;24.65;;;1.10;99.90;;;;;;4955322;28;20744;-70
2020/12/03 05:47:03;;;;;;;42.40;24.17;;;1.10;99.90;;;;;;4956155;28;20268;-70
2020/12/03 05:49:30;;;;;;;35.75;20.52;;;1.10;99.90;;;;;;4955158;29;20694;-70
2020/12/03 05:52:14;;;;;;;37.97;22.10;;;1.10;99.90;;;;;;4955636;28;20229;-70
2020/12/03 05:54:54;;;;;;;31.80;15.05;;;1.10;99.90;;;;;;4956418;28;20224;-69
2020/12/03 05:57:22;;;;;;;44.42;22.63;;;1.10;99.90;;;;;;4954818;28;20297;-69
2020/12/03 05:59:50;;;;;;;42.22;21.73;;;1.10;99.90;;;;;;4955304;28;20248;-69
2020/12/03 06:02:26;;;;;;;31.50;19.88;;;1.10;99.90;;;;;;4955087;28;20233;-69
2020/12/03 06:05:01;;;;;;;46.78;23.10;;;1.20;99.90;;;;;;4955203;28;20201;-69
2020/12/03 06:07:48;;;;;;;42.78;21.55;;;1.10;99.90;;;;;;4955822;28;20641;-69
2020/12/03 06:10:35;;;;;;;40.30;22.30;;;1.10;99.90;;;;;;4948262;28;20583;-68
2020/12/03 06:13:25;;;;;;;34.35;21.35;;;1.10;99.90;;;;;;4955083;28;20205;-69
2020/12/03 06:15:57;;;;;;;40.92;20.90;;;1.10;99.90;;;;;;4954746;28;20245;-68
2020/12/03 06:18:40;;;;;;;44.85;22.55;;;1.10;99.90;;;;;;4956048;28;20284;-69
2020/12/03 06:21:32;;;;;;;50.83;23.27;;;1.10;99.90;;;;;;4954426;28;20237;-69
2020/12/03 06:24:18;;;;;;;42.00;22.55;;;1.10;99.90;;;;;;4955100;28;20275;-69
2020/12/03 06:27:04;;;;;;;44.17;24.05;;;1.10;99.90;;;;;;4935807;29;20210;-69
2020/12/03 06:29:54;;;;;;;41.38;21.88;;;1.20;99.90;;;;;;4949295;28;20576;-69
2020/12/03 06:32:40;;;;;;;38.80;21.52;;;1.20;99.90;;;;;;4955067;28;20225;-69
2020/12/03 06:35:23;;;;;;;40.00;23.17;;;1.20;99.90;;;;;;4936429;29;20321;-69
2020/12/03 06:37:55;;;;;;;46.60;24.52;;;1.20;99.90;;;;;;4944813;29;20201;-69
2020/12/03 06:40:26;;;;;;;28.27;15.85;;;1.10;99.90;;;;;;4954465;28;20280;-68
2020/12/03 06:42:57;;;;;;;36.30;20.10;;;1.10;99.90;;;;;;4949805;28;20684;-68
2020/12/03 06:45:30;;;;;;;43.70;22.60;;;1.10;99.90;;;;;;4965450;28;20201;-68
2020/12/03 06:48:39;;;;;;;40.22;21.88;;;1.10;99.90;;;;;;4935700;29;20233;-69
2020/12/03 06:51:42;;;;;;;44.60;25.38;;;1.10;99.90;;;;;;4951876;28;20225;-68
2020/12/03 06:54:27;;;;;;;43.50;23.25;;;1.10;99.90;;;;;;4954823;28;20213;-68
2020/12/03 06:57:26;;;;;;;36.58;18.27;;;1.10;99.90;;;;;;4952031;28;20679;-67
2020/12/03 07:00:43;;;;;;;38.70;18.90;;;1.10;99.90;;;;;;4954516;28;20241;-68
2020/12/03 07:03:47;;;;;;;27.75;15.10;;;1.10;99.90;;;;;;4954493;29;20217;-69
2020/12/03 07:06:41;;;;;;;33.97;19.88;;;1.10;99.90;;;;;;4954910;28;20688;-69
2020/12/03 07:09:43;;;;;;;38.70;22.63;;;1.10;99.90;;;;;;4938875;29;20723;-68
2020/12/03 07:12:27;;;;;;;41.10;22.48;;;1.10;99.90;;;;;;4934838;29;20229;-68
2020/12/03 07:15:43;;;;;;;41.78;23.35;;;1.10;99.90;;;;;;4939973;28;20218;-68
2020/12/03 07:18:49;;;;;;;45.40;20.58;;;1.10;99.90;;;;;;4954114;28;20252;-68
2020/12/03 07:21:46;;;;;;;23.33;13.02;;;1.20;99.90;;;;;;4954467;28;20256;-68
2020/12/03 07:24:16;;;;;;;44.40;25.58;;;1.20;99.90;;;;;;4954376;28;20213;-68
2020/12/03 07:27:04;;;;;;;38.85;19.23;;;1.20;99.90;;;;;;4953236;28;20205;-68
2020/12/03 07:29:38;;;;;;;42.88;26.20;;;1.20;99.90;;;;;;4950083;29;20260;-68
2020/12/03 07:32:16;;;;;;;38.30;20.80;;;1.20;99.90;;;;;;4953563;28;20272;-68
2020/12/03 07:34:47;;;;;;;36.65;21.15;;;1.20;99.90;;;;;;4949229;28;20208;-68
2020/12/03 07:37:26;;;;;;;27.48;15.95;;;1.20;99.90;;;;;;4944758;28;20284;-67
2020/12/03 07:39:53;;;;;;;23.15;12.93;;;1.10;99.90;;;;;;4953864;28;20193;-67
2020/12/03 07:42:23;;;;;;;42.10;20.67;;;1.10;99.90;;;;;;4951822;28;20287;-68
2020/12/03 07:44:53;;;;;;;46.50;22.92;;;1.10;99.90;;;;;;4953653;28;20213;-68
2020/12/03 07:47:24;;;;;;;50.55;24.60;;;1.10;99.90;;;;;;4943685;28;20210;-68
2020/12/03 07:49:52;;;;;;;45.42;24.35;;;1.20;99.90;;;;;;4952428;29;20288;-69
2020/12/03 07:52:29;;;;;;;49.10;26.35;;;1.20;99.90;;;;;;4945017;28;20296;-68
2020/12/03 07:55:28;;;;;;;50.83;23.98;;;1.20;99.90;;;;;;4949785;29;20208;-68
2020/12/03 07:57:57;;;;;;;35.20;16.63;;;1.30;99.90;;;;;;4948575;28;20228;-68
2020/12/03 08:00:48;;;;;;;33.35;17.48;;;1.30;99.90;;;;;;4952493;28;20207;-68
2020/12/03 08:03:37;;;;;;;48.50;25.02;;;1.30;99.90;;;;;;4952920;28;20217;-68
2020/12/03 08:06:16;;;;;;;39.97;22.83;;;1.30;99.90;;;;;;4953271;28;20276;-68
2020/12/03 08:08:43;;;;;;;40.42;22.17;;;1.30;99.90;;;;;;4953539;28;20591;-68
2020/12/03 08:11:57;;;;;;;42.75;23.70;;;1.30;99.90;;;;;;4951780;28;20229;-67
2020/12/03 08:14:43;;;;;;;34.83;19.55;;;1.40;99.90;;;;;;4908009;29;20286;-69
2020/12/03 08:17:35;;;;;;;38.75;22.25;;;1.40;99.90;;;;;;4898346;29;20215;-68
2020/12/03 08:20:15;;;;;;;45.88;25.70;;;1.40;99.90;;;;;;4924666;29;20269;-68
2020/12/03 08:22:43;;;;;;;39.28;19.33;;;1.50;99.90;;;;;;4934053;29;20635;-69
2020/12/03 08:25:12;;;;;;;43.65;23.02;;;1.40;99.90;;;;;;4952136;29;20209;-69
2020/12/03 08:27:39;;;;;;;43.80;23.17;;;1.40;99.90;;;;;;4943608;28;20210;-69
2020/12/03 08:30:33;;;;;;;45.35;23.17;;;1.40;99.90;;;;;;4938779;29;20229;-68
2020/12/03 08:33:04;;;;;;;28.50;16.90;;;1.40;99.90;;;;;;4933887;29;20285;-69
2020/12/03 08:35:30;;;;;;;41.55;22.30;;;1.40;99.90;;;;;;4935796;29;20268;-68
2020/12/03 08:38:00;;;;;;;25.75;14.75;;;1.40;99.90;;;;;;4953162;28;20229;-69
2020/12/03 08:40:28;;;;;;;44.58;21.98;;;1.40;99.90;;;;;;4950532;28;20346;-68
2020/12/03 08:42:54;;;;;;;24.50;14.40;;;1.40;99.90;;;;;;4939258;28;20217;-69
2020/12/03 08:45:20;;;;;;;35.95;19.30;;;1.50;99.90;;;;;;4953386;28;20205;-69
2020/12/03 08:47:51;;;;;;;44.67;22.88;;;1.50;99.90;;;;;;4952718;28;20198;-68
2020/12/03 08:50:18;;;;;;;41.25;21.83;;;1.50;99.90;;;;;;4957016;28;20267;-69
2020/12/03 08:52:45;;;;;;;51.35;22.50;;;1.60;99.90;;;;;;4946632;28;20210;-69
2020/12/03 08:55:12;;;;;;;28.98;18.45;;;1.70;99.90;;;;;;4937732;29;20237;-69
2020/12/03 08:57:40;;;;;;;36.03;18.42;;;1.70;99.90;;;;;;4951818;28;20268;-68
2020/12/03 09:00:08;;;;;;;22.48;13.23;;;1.80;99.90;;;;;;4956926;28;20205;-68
2020/12/03 09:02:34;;;;;;;27.73;16.20;;;1.80;99.90;;;;;;4955617;28;20217;-69
2020/12/03 09:05:00;;;;;;;35.95;17.30;;;1.80;99.90;;;;;;4957249;28;20275;-68
2020/12/03 09:07:31;;;;;;;41.60;22.10;;;1.80;99.90;;;;;;4954445;28;20209;-68
2020/12/03 09:10:00;;;;;;;21.60;13.00;;;1.90;99.90;;;;;;4956955;28;20237;-68
2020/12/03 09:12:29;;;;;;;44.08;22.88;;;1.90;99.90;;;;;;4954844;28;20225;-68
2020/12/03 09:14:59;;;;;;;41.22;22.88;;;1.90;99.90;;;;;;4956951;28;20252;-68
2020/12/03 09:17:27;;;;;;;40.22;22.35;;;2.00;99.90;;;;;;4956038;28;20201;-69
2020/12/03 09:19:53;;;;;;;48.88;21.63;;;2.00;99.90;;;;;;4956531;28;20209;-67
2020/12/03 09:22:22;;;;;;;25.50;17.58;;;2.00;99.90;;;;;;4952445;28;20226;-69
2020/12/03 09:24:50;;;;;;;36.00;21.27;;;1.90;99.90;;;;;;4937444;29;20210;-67
2020/12/03 09:27:16;;;;;;;41.53;21.25;;;1.90;99.90;;;;;;4953873;29;20264;-67
2020/12/03 09:29:49;;;;;;;31.40;16.98;;;2.00;99.90;;;;;;4956167;28;20233;-68
2020/12/03 09:32:19;;;;;;;36.20;21.50;;;2.00;99.90;;;;;;4954659;28;20229;-69
2020/12/03 09:34:47;;;;;;;39.92;22.08;;;2.00;99.90;;;;;;4949636;29;20515;-68
2020/12/03 09:37:13;;;;;;;46.20;24.90;;;2.00;99.90;;;;;;4957191;28;20268;-67
2020/12/03 09:39:40;;;;;;;43.22;25.05;;;2.00;99.90;;;;;;4957129;28;20276;-68
2020/12/03 09:42:13;;;;;;;39.88;22.15;;;2.00;99.90;;;;;;4956328;28;20267;-68
2020/12/03 09:44:42;;;;;;;34.83;20.23;;;2.00;99.90;;;;;;4937206;29;20703;-68
2020/12/03 09:47:11;;;;;;;38.83;21.17;;;2.00;99.90;;;;;;4936986;29;20218;-67
2020/12/03 09:49:41;;;;;;;34.40;20.25;;;2.10;99.90;;;;;;4937643;29;20229;-68
2020/12/03 09:52:10;;;;;;;39.55;22.58;;;2.00;99.90;;;;;;4953910;28;20308;-68
2020/12/03 09:54:36;;;;;;;34.65;21.85;;;2.10;99.90;;;;;;4939682;29;20329;-68
2020/12/03 09:57:04;;;;;;;22.58;13.23;;;2.00;99.90;;;;;;4955067;28;20731;-67
2020/12/03 09:59:31;;;;;;;33.13;18.60;;;2.00;99.90;;;;;;4955084;28;20206;-68
2020/12/03 10:02:21;;;;;;;42.72;22.65;;;1.90;99.90;;;;;;4954412;28;20261;-68
2020/12/03 10:05:09;;;;;;;37.10;20.20;;;2.00;99.90;;;;;;4955975;29;20287;-68
2020/12/03 10:07:55;;;;;;;33.28;18.95;;;2.00;99.90;;;;;;4957042;28;20209;-68
2020/12/03 10:10:29;;;;;;;36.28;21.27;;;2.10;99.90;;;;;;4955760;28;20229;-69
2020/12/03 10:13:11;;;;;;;27.15;15.55;;;2.10;99.90;;;;;;4951251;28;20261;-68
2020/12/03 10:15:55;;;;;;;31.50;13.13;;;2.10;99.90;;;;;;4936899;29;20248;-69
2020/12/03 10:18:23;;;;;;;31.55;18.95;;;2.10;99.90;;;;;;4952647;29;20356;-69
2020/12/03 10:20:51;;;;;;;34.13;18.73;;;2.00;99.90;;;;;;4955735;28;20265;-69
2020/12/03 10:23:36;;;;;;;23.23;13.73;;;2.00;99.90;;;;;;4953684;28;20253;-68
2020/12/03 10:26:14;;;;;;;38.13;20.85;;;2.00;99.90;;;;;;4954018;28;20201;-69
2020/12/03 10:28:42;;;;;;;25.95;17.33;;;2.00;99.90;;;;;;4955516;28;20321;-68
2020/12/03 10:31:11;;;;;;;36.13;19.63;;;2.00;99.90;;;;;;4954891;28;20276;-68
2020/12/03 10:33:39;;;;;;;27.48;15.02;;;2.00;99.90;;;;;;4954099;28;20205;-68
2020/12/03 10:36:12;;;;;;;31.33;18.65;;;2.10;99.90;;;;;;4954924;28;20213;-69
2020/12/03 10:38:43;;;;;;;35.17;19.80;;;2.10;99.90;;;;;;4955458;28;20206;-69
2020/12/03 10:41:10;;;;;;;39.28;21.42;;;2.00;99.90;;;;;;4948921;28;20225;-68
2020/12/03 10:43:40;;;;;;;28.17;17.80;;;2.00;99.90;;;;;;4954121;28;20224;-69
2020/12/03 10:46:13;;;;;;;27.35;16.83;;;2.00;99.90;;;;;;4938640;28;20216;-68
2020/12/03 10:48:43;;;;;;;24.77;14.05;;;2.00;99.90;;;;;;4948692;29;20232;-68
2020/12/03 10:51:10;;;;;;;41.13;22.20;;;2.00;99.90;;;;;;4955149;28;20221;-69
2020/12/03 10:53:38;;;;;;;26.15;16.92;;;2.10;99.90;;;;;;4941480;28;20694;-69
2020/12/03 10:56:05;;;;;;;26.70;15.00;;;2.10;99.90;;;;;;4954673;28;20301;-69
2020/12/03 10:58:37;;;;;;;35.00;18.45;;;2.10;99.90;;;;;;4940317;28;20214;-69
2020/12/03 11:01:08;;;;;;;34.30;18.85;;;2.10;99.90;;;;;;4955135;28;20670;-69
2020/12/03 11:03:37;;;;;;;36.38;18.75;;;2.10;99.90;;;;;;4954561;28;20213;-68
2020/12/03 11:06:04;;;;;;;33.10;17.48;;;2.10;99.90;;;;;;4948810;28;20205;-69
2020/12/03 11:08:38;;;;;;;33.83;18.40;;;2.10;99.90;;;;;;4948365;29;20764;-69
2020/12/03 11:11:04;;;;;;;38.42;19.95;;;2.10;99.90;;;;;;4942456;28;20670;-68
2020/12/03 11:13:31;;;;;;;39.03;24.60;;;2.10;99.90;;;;;;4958468;28;20209;-69
2020/12/03 11:16:00;;;;;;;31.23;17.98;;;2.20;99.90;;;;;;4951293;28;20561;-69
2020/12/03 11:18:27;;;;;;;21.10;14.10;;;2.20;99.90;;;;;;4935480;29;20214;-70
2020/12/03 11:21:00;;;;;;;28.85;16.73;;;2.10;99.90;;;;;;4945028;29;20225;-69
2020/12/03 11:23:29;;;;;;;30.52;16.75;;;2.10;99.90;;;;;;4953371;29;20209;-69
2020/12/03 11:26:03;;;;;;;29.55;16.90;;;2.10;99.90;;;;;;4953097;28;20304;-69
2020/12/03 11:28:33;;;;;;;31.35;15.30;;;2.10;99.90;;;;;;4954109;28;20342;-69
2020/12/03 11:31:02;;;;;;;29.23;18.02;;;2.20;99.90;;;;;;4946598;28;20226;-69
2020/12/03 11:33:29;;;;;;;26.42;16.38;;;2.20;99.90;;;;;;4936921;29;20304;-69
2020/12/03 11:36:08;;;;;;;30.55;19.52;;;2.20;99.90;;;;;;4940396;28;20220;-69
2020/12/03 11:38:34;;;;;;;26.00;16.75;;;2.20;99.90;;;;;;4954685;28;20201;-69
2020/12/03 11:41:04;;;;;;;14.35;10.02;;;2.20;99.90;;;;;;4953227;28;20232;-69
2020/12/03 11:48:59;;;;;;;33.58;17.17;;;2.20;99.90;;;;;;4921135;28;20236;-67
2020/12/03 11:51:27;;;;;;;22.65;12.88;;;2.30;99.90;;;;;;4954107;28;20233;-67
2020/12/03 11:53:58;;;;;;;27.58;16.55;;;2.30;99.90;;;;;;4942549;28;20202;-67
2020/12/03 11:56:24;;;;;;;21.73;11.63;;;2.30;99.90;;;;;;4945155;28;20217;-68
2020/12/03 11:58:52;;;;;;;29.20;16.85;;;2.30;99.90;;;;;;4944326;28;20292;-68
2020/12/03 12:01:18;;;;;;;24.73;15.15;;;2.30;99.90;;;;;;4953176;28;20559;-68
2020/12/03 12:03:47;;;;;;;30.48;17.60;;;2.30;99.90;;;;;;4952597;28;20264;-68
2020/12/03 12:06:19;;;;;;;33.03;16.50;;;2.30;99.90;;;;;;4953588;28;20198;-68
2020/12/03 12:08:52;;;;;;;30.00;19.02;;;2.30;99.90;;;;;;4934774;29;20597;-68
2020/12/03 12:11:21;;;;;;;26.85;13.63;;;2.40;99.90;;;;;;4946462;28;20236;-67
2020/12/03 12:13:52;;;;;;;25.73;16.75;;;2.40;99.90;;;;;;4952150;28;20197;-67
2020/12/03 12:16:18;;;;;;;32.25;18.10;;;2.50;99.90;;;;;;4953909;29;20212;-69
2020/12/03 12:18:46;;;;;;;32.45;18.20;;;2.50;99.90;;;;;;4946756;28;20205;-67
2020/12/03 12:21:12;;;;;;;33.97;18.63;;;2.50;99.90;;;;;;4949308;28;20606;-67
2020/12/03 12:23:38;;;;;;;37.92;21.42;;;2.60;99.90;;;;;;4955025;28;20229;-68
2020/12/03 12:26:05;;;;;;;32.53;15.93;;;2.60;99.90;;;;;;4956782;28;20606;-67
2020/12/03 12:28:31;;;;;;;43.28;23.40;;;2.70;99.90;;;;;;4957760;28;20213;-67
2020/12/03 12:30:57;;;;;;;32.85;19.52;;;2.70;99.90;;;;;;4956280;28;20217;-67
2020/12/03 12:33:23;;;;;;;34.10;18.67;;;2.80;99.90;;;;;;4956172;28;20212;-67
2020/12/03 12:35:49;;;;;;;29.70;17.20;;;2.80;99.90;;;;;;4953481;28;20662;-68
2020/12/03 12:38:16;;;;;;;33.92;18.52;;;2.80;99.90;;;;;;4959963;28;20205;-67
2020/12/03 12:40:42;;;;;;;28.42;17.25;;;2.70;99.90;;;;;;4956734;28;20225;-67
2020/12/03 12:43:09;;;;;;;34.63;21.10;;;2.80;99.90;;;;;;4973881;28;20544;-67
2020/12/03 12:45:35;;;;;;;35.13;17.75;;;2.80;99.90;;;;;;4968516;28;20261;-67
2020/12/03 12:48:01;;;;;;;27.10;15.40;;;2.70;99.90;;;;;;4956864;28;20614;-67
2020/12/03 12:50:27;;;;;;;32.45;17.98;;;2.70;99.90;;;;;;4957045;28;20237;-68
2020/12/03 12:52:53;;;;;;;25.33;14.75;;;2.70;99.90;;;;;;4937800;28;20206;-68
2020/12/03 12:55:19;;;;;;;29.60;16.80;;;2.70;99.90;;;;;;4956376;28;20216;-69
2020/12/03 12:57:45;;;;;;;31.77;16.00;;;2.70;99.90;;;;;;4956626;28;20213;-69
2020/12/03 13:00:13;;;;;;;25.98;15.00;;;2.70;99.90;;;;;;4956945;28;20268;-69
2020/12/03 13:02:39;;;;;;;27.17;15.57;;;2.60;99.90;;;;;;4941249;28;20214;-67
2020/12/03 13:05:05;;;;;;;22.02;13.68;;;2.60;99.90;;;;;;4956513;28;20617;-68
2020/12/03 13:07:31;;;;;;;30.48;15.60;;;2.60;99.90;;;;;;4956299;28;20280;-68
2020/12/03 13:09:57;;;;;;;27.60;15.40;;;2.60;99.90;;;;;;4956885;28;20288;-68
2020/12/03 13:12:23;;;;;;;28.20;16.27;;;2.60;99.90;;;;;;4953575;28;20268;-68
2020/12/03 13:14:49;;;;;;;9.32;7.22;;;2.60;99.90;;;;;;4957015;28;20197;-68
2020/12/03 13:17:17;;;;;;;31.10;14.77;;;2.60;99.90;;;;;;4956431;28;20582;-69
2020/12/03 13:19:43;;;;;;;25.42;14.38;;;2.60;99.90;;;;;;4955970;28;20206;-69
2020/12/03 13:22:09;;;;;;;16.20;8.70;;;2.60;99.90;;;;;;4954126;28;20225;-68
2020/12/03 13:24:35;;;;;;;27.52;16.10;;;2.60;99.90;;;;;;4957021;28;20633;-68
2020/12/03 13:27:01;;;;;;;24.85;14.00;;;2.60;99.90;;;;;;4954706;28;20213;-68
2020/12/03 13:29:27;;;;;;;20.67;11.75;;;2.60;99.90;;;;;;4956296;28;20764;-68
2020/12/03 13:31:53;;;;;;;23.90;13.82;;;2.50;99.90;;;;;;4955533;28;20226;-68
2020/12/03 13:34:20;;;;;;;20.20;10.55;;;2.50;99.90;;;;;;4955622;28;20666;-68
2020/12/03 13:36:46;;;;;;;26.95;15.98;;;2.50;99.90;;;;;;4955582;28;20206;-68
2020/12/03 13:39:13;;;;;;;34.97;16.02;;;2.50;99.90;;;;;;4955917;28;20961;-68
2020/12/03 13:41:40;;;;;;;29.75;14.13;;;2.50;99.90;;;;;;4955206;28;20772;-68
2020/12/03 13:44:06;;;;;;;7.50;6.43;;;2.50;99.90;;;;;;4955736;28;20206;-68
2020/12/03 13:46:35;;;;;;;30.80;14.75;;;2.50;99.90;;;;;;4956464;28;20268;-69
2020/12/03 13:49:02;;;;;;;31.35;15.32;;;2.50;99.90;;;;;;4955819;29;20348;-68
2020/12/03 13:51:28;;;;;;;22.20;13.32;;;2.60;99.90;;;;;;4951242;28;20222;-69
2020/12/03 13:53:55;;;;;;;29.65;15.70;;;2.60;99.90;;;;;;4951917;28;20280;-68
2020/12/03 13:56:21;;;;;;;29.70;16.48;;;2.60;99.90;;;;;;4950192;28;20260;-69
2020/12/03 13:58:47;;;;;;;28.83;15.80;;;2.60;99.90;;;;;;4956380;28;20295;-69
2020/12/03 14:01:13;;;;;;;20.73;10.48;;;2.60;99.90;;;;;;4954763;28;20237;-69
2020/12/03 14:03:39;;;;;;;34.42;17.80;;;2.60;99.90;;;;;;4955654;28;20205;-69
2020/12/03 14:06:05;;;;;;;21.05;12.65;;;2.60;99.90;;;;;;4955419;28;20201;-67
2020/12/03 14:08:32;;;;;;;34.90;17.77;;;2.60;99.90;;;;;;4955974;28;20213;-68
2020/12/03 14:10:58;;;;;;;30.83;16.38;;;2.70;99.90;;;;;;4954778;28;20217;-67
2020/12/03 14:13:24;;;;;;;27.17;16.73;;;2.70;99.90;;;;;;4955202;28;20623;-68
2020/12/03 14:15:51;;;;;;;28.00;16.85;;;2.70;99.90;;;;;;4955297;28;20260;-69
2020/12/03 14:18:17;;;;;;;30.80;17.17;;;2.70;99.90;;;;;;4956333;28;20264;-68
2020/12/03 14:20:43;;;;;;;11.00;7.00;;;2.70;99.90;;;;;;4955037;28;20218;-69
2020/12/03 14:23:09;;;;;;;29.58;15.48;;;2.70;99.90;;;;;;4954666;28;20217;-68
2020/12/03 14:25:36;;;;;;;28.83;14.90;;;2.70;99.90;;;;;;4954565;28;20360;-69
2020/12/03 14:28:02;;;;;;;29.65;16.67;;;2.70;99.90;;;;;;4955633;28;20288;-69
2020/12/03 14:30:28;;;;;;;30.02;15.63;;;2.70;99.90;;;;;;4955322;28;20228;-68
2020/12/03 14:32:56;;;;;;;30.58;16.17;;;2.70;99.90;;;;;;4954924;28;20209;-68
2020/12/03 14:35:22;;;;;;;31.63;17.05;;;2.70;99.90;;;;;;4954934;28;20570;-68
2020/12/03 14:37:48;;;;;;;32.22;17.17;;;2.70;99.90;;;;;;4953305;28;20559;-68
2020/12/03 14:40:16;;;;;;;28.95;11.00;;;2.70;99.90;;;;;;4954956;28;20198;-68
2020/12/03 14:42:43;;;;;;;27.02;15.63;;;2.70;99.90;;;;;;4953568;28;20216;-68
2020/12/03 14:45:14;;;;;;;30.27;16.63;;;2.70;99.90;;;;;;4953922;28;20257;-68
2020/12/03 14:47:40;;;;;;;30.42;17.15;;;2.70;99.90;;;;;;4953538;28;20292;-68
2020/12/03 14:50:11;;;;;;;26.23;15.52;;;2.70;99.90;;;;;;4952695;28;20324;-68
2020/12/03 14:52:40;;;;;;;33.08;16.10;;;2.70;99.90;;;;;;4949391;28;20225;-68
2020/12/03 14:55:06;;;;;;;27.33;15.82;;;2.70;99.90;;;;;;4953786;28;20210;-68
2020/12/03 14:57:35;;;;;;;33.03;18.45;;;2.70;99.90;;;;;;4954827;28;20254;-69
2020/12/03 15:00:05;;;;;;;31.25;16.88;;;2.70;99.90;;;;;;4942390;29;20229;-68
2020/12/03 15:02:32;;;;;;;30.65;17.10;;;2.70;99.90;;;;;;4954035;28;20237;-68
2020/12/03 15:04:58;;;;;;;36.25;18.08;;;2.70;99.90;;;;;;4954829;28;20518;-69
2020/12/03 15:07:24;;;;;;;27.27;15.90;;;2.70;99.90;;;;;;4955104;28;20271;-69
2020/12/03 15:09:52;;;;;;;17.33;9.60;;;2.70;99.90;;;;;;4954322;28;20222;-69
2020/12/03 15:12:19;;;;;;;30.02;14.77;;;2.60;99.90;;;;;;4954429;28;20260;-68
2020/12/03 15:14:45;;;;;;;22.92;12.40;;;2.60;99.90;;;;;;4954157;28;20221;-68
2020/12/03 15:17:12;;;;;;;27.55;15.20;;;2.60;99.90;;;;;;4954424;28;20217;-69
2020/12/03 15:19:38;;;;;;;30.67;16.85;;;2.60;99.90;;;;;;4954493;28;20263;-69
2020/12/03 15:22:05;;;;;;;34.05;19.70;;;2.60;99.90;;;;;;4952133;28;20652;-68
2020/12/03 15:24:31;;;;;;;34.20;14.98;;;2.60;99.90;;;;;;4955142;28;20674;-68
2020/12/03 15:26:57;;;;;;;26.17;13.13;;;2.60;99.90;;;;;;4953618;28;20209;-68
2020/12/03 15:29:24;;;;;;;28.70;15.63;;;2.60;99.90;;;;;;4953947;28;20237;-68
2020/12/03 15:31:50;;;;;;;30.67;16.75;;;2.60;99.90;;;;;;4952578;28;20276;-68
2020/12/03 15:34:17;;;;;;;36.92;16.75;;;2.60;99.90;;;;;;4954850;28;20213;-69
2020/12/03 15:36:55;;;;;;;25.77;13.95;;;2.60;99.90;;;;;;4953552;28;20201;-69
2020/12/03 15:39:22;;;;;;;31.50;16.88;;;2.60;99.90;;;;;;4935771;28;20242;-69
2020/12/03 15:42:03;;;;;;;16.58;10.05;;;2.60;99.90;;;;;;4951330;28;20225;-67
2020/12/03 15:44:29;;;;;;;26.45;15.35;;;2.50;99.90;;;;;;4954000;28;20219;-70
2020/12/03 15:46:56;;;;;;;18.15;10.90;;;2.60;99.90;;;;;;4954604;28;20213;-69
2020/12/03 15:49:23;;;;;;;30.25;16.02;;;2.50;99.90;;;;;;4954447;28;20280;-67
2020/12/03 15:51:50;;;;;;;15.45;9.15;;;2.60;99.90;;;;;;4952893;28;20534;-68
2020/12/03 15:54:17;;;;;;;12.90;8.95;;;2.50;99.90;;;;;;4954608;28;20257;-68
2020/12/03 15:56:43;;;;;;;29.02;16.35;;;2.50;99.90;;;;;;4953925;28;20736;-69
2020/12/03 15:59:09;;;;;;;18.60;10.27;;;2.50;99.90;;;;;;4953408;28;20206;-68
2020/12/03 16:01:35;;;;;;;17.48;10.80;;;2.50;99.90;;;;;;4953716;28;20307;-68
2020/12/03 16:04:01;;;;;;;24.67;8.40;;;2.40;99.90;;;;;;4953502;28;20232;-68
2020/12/03 16:06:28;;;;;;;16.52;7.45;;;2.40;99.90;;;;;;4953954;28;20363;-68
2020/12/03 16:08:55;;;;;;;26.83;15.43;;;2.40;99.90;;;;;;4954432;28;20260;-68
2020/12/03 16:11:25;;;;;;;23.88;11.85;;;2.40;99.90;;;;;;4953639;28;20277;-69
2020/12/03 16:13:51;;;;;;;33.83;14.77;;;2.40;99.90;;;;;;4952786;28;20231;-69
2020/12/03 16:16:17;;;;;;;21.95;12.55;;;2.40;99.90;;;;;;4953868;28;20204;-70
2020/12/03 16:18:43;;;;;;;31.92;15.40;;;2.40;99.90;;;;;;4954249;28;20276;-69
2020/12/03 16:21:09;;;;;;;16.15;9.55;;;2.50;99.90;;;;;;4953560;28;20229;-69
2020/12/03 16:23:36;;;;;;;26.48;13.98;;;2.50;99.90;;;;;;4953573;28;20280;-69
2020/12/03 16:26:02;;;;;;;28.73;15.32;;;2.50;99.90;;;;;;4954946;28;20217;-68
2020/12/03 16:28:28;;;;;;;25.25;14.45;;;2.50;99.90;;;;;;4956847;28;20279;-70
2020/12/03 16:30:54;;;;;;;26.35;14.90;;;2.50;99.90;;;;;;4955729;28;20233;-69
2020/12/03 16:33:20;;;;;;;27.02;14.90;;;2.50;99.90;;;;;;4953999;28;20245;-69
2020/12/03 16:35:48;;;;;;;33.15;16.08;;;2.50;99.90;;;;;;4954505;28;20256;-70
2020/12/03 16:38:14;;;;;;;30.08;15.90;;;2.50;99.90;;;;;;4952168;28;20571;-70
2020/12/03 16:40:41;;;;;;;26.65;14.20;;;2.50;99.90;;;;;;4952598;28;20225;-71
2020/12/03 16:43:07;;;;;;;23.73;14.45;;;2.50;99.90;;;;;;4942418;28;20214;-69
2020/12/03 16:45:33;;;;;;;26.92;14.32;;;2.50;99.90;;;;;;4951670;28;20677;-69
2020/12/03 16:47:59;;;;;;;22.63;11.63;;;2.50;99.90;;;;;;4952591;28;20243;-70
2020/12/03 16:50:26;;;;;;;18.23;10.38;;;2.50;99.90;;;;;;4943501;28;20229;-70
2020/12/03 16:52:52;;;;;;;23.33;11.68;;;2.50;99.90;;;;;;4953401;28;20210;-70
2020/12/03 16:55:18;;;;;;;24.63;13.07;;;2.50;99.90;;;;;;4952864;28;20205;-69
2020/12/03 16:57:45;;;;;;;24.20;12.63;;;2.50;99.90;;;;;;4953250;28;20248;-69
2020/12/03 17:00:12;;;;;;;27.30;14.52;;;2.50;99.90;;;;;;4952392;28;20209;-69
2020/12/03 17:02:38;;;;;;;25.55;14.95;;;2.50;99.90;;;;;;4946782;28;20288;-70
2020/12/03 17:05:04;;;;;;;25.98;14.30;;;2.50;99.90;;;;;;4937478;29;20206;-70
2020/12/03 17:07:30;;;;;;;26.05;14.65;;;2.50;99.90;;;;;;4953236;28;20202;-70
2020/12/03 17:09:56;;;;;;;27.10;13.77;;;2.60;99.90;;;;;;4955274;28;20324;-71
2020/12/03 17:12:22;;;;;;;26.55;15.82;;;2.50;99.90;;;;;;4955807;28;20637;-70
2020/12/03 17:14:49;;;;;;;31.50;12.73;;;2.50;99.90;;;;;;4957219;28;20689;-70
2020/12/03 17:17:15;;;;;;;30.15;14.70;;;2.50;99.90;;;;;;4956204;28;20241;-70
2020/12/03 17:19:42;;;;;;;25.90;11.02;;;2.50;99.90;;;;;;4957195;28;20201;-70
2020/12/03 17:22:08;;;;;;;32.40;16.25;;;2.50;99.90;;;;;;4955504;28;20232;-70
2020/12/03 17:24:34;;;;;;;29.27;14.63;;;2.50;99.90;;;;;;4956986;28;20587;-70
2020/12/03 17:27:00;;;;;;;28.48;15.05;;;2.50;99.90;;;;;;4955572;28;20201;-70
2020/12/03 17:29:26;;;;;;;30.45;17.40;;;2.50;99.90;;;;;;4956456;28;20229;-70
2020/12/03 17:31:54;;;;;;;28.85;15.07;;;2.50;99.90;;;;;;4955061;28;20275;-71
2020/12/03 17:34:21;;;;;;;19.30;9.85;;;2.50;99.90;;;;;;4957585;28;20241;-70
2020/12/03 17:36:47;;;;;;;23.42;13.40;;;2.50;99.90;;;;;;4956436;28;20209;-72
2020/12/03 17:39:13;;;;;;;30.85;14.00;;;2.50;99.90;;;;;;4957568;28;20217;-71
2020/12/03 17:41:39;;;;;;;18.10;9.35;;;2.50;99.90;;;;;;4959407;28;20229;-69
2020/12/03 17:44:05;;;;;;;23.80;15.10;;;2.50;99.90;;;;;;4956686;29;20233;-71
2020/12/03 17:46:32;;;;;;;16.42;10.52;;;2.50;99.90;;;;;;4956117;28;20208;-69
2020/12/03 17:48:59;;;;;;;29.88;14.32;;;2.50;99.90;;;;;;4956427;28;20274;-68
2020/12/03 17:51:25;;;;;;;31.08;15.35;;;2.50;99.90;;;;;;4955509;28;20229;-69
2020/12/03 17:53:51;;;;;;;18.67;10.18;;;2.50;99.90;;;;;;4953445;28;20205;-70
2020/12/03 17:56:17;;;;;;;22.85;12.20;;;2.50;99.90;;;;;;4954794;28;20547;-69
2020/12/03 17:58:43;;;;;;;8.82;6.90;;;2.50;99.90;;;;;;4955462;28;20612;-71
2020/12/03 18:01:10;;;;;;;24.02;12.95;;;2.40;99.90;;;;;;4956104;28;20299;-72
2020/12/03 18:03:36;;;;;;;16.95;10.57;;;2.40;99.90;;;;;;4957207;28;20335;-70